Time;durP1;ratioP1;P1;durP2;ratioP2;P2;SDS_P1;SDS_P2;PMS_P1;PMS_P2;Temp;Humidity;BMP_temperature;BMP_pressure;BME280_temperature;BME280_humidity;BME280_pressure;Samples;Min_cycle;Max_cycle;Signal;HPM_P1;HPM_P2
2021/10/15 00:01:59;;;;;;;11.68;6.15;;;5.30;99.90;;;;;;1994162;70;21062;-74
2021/10/15 00:04:25;;;;;;;9.43;6.05;;;5.20;99.90;;;;;;2026084;70;21062;-75
2021/10/15 00:06:51;;;;;;;11.55;5.87;;;5.20;99.90;;;;;;2018966;70;21054;-75
2021/10/15 00:09:22;;;;;;;9.55;6.00;;;5.20;99.90;;;;;;2004809;70;21023;-75
2021/10/15 00:11:45;;;;;;;16.40;5.70;;;5.30;99.90;;;;;;2010229;70;21198;-74
2021/10/15 00:14:11;;;;;;;11.05;6.50;;;5.30;99.90;;;;;;2005029;70;21136;-75
2021/10/15 00:16:37;;;;;;;8.98;5.70;;;5.20;99.90;;;;;;2022523;70;21154;-75
2021/10/15 00:19:03;;;;;;;7.87;5.62;;;5.30;99.90;;;;;;1989057;70;21043;-75
2021/10/15 00:21:30;;;;;;;8.93;5.62;;;5.30;99.90;;;;;;2013275;70;21021;-75
2021/10/15 00:23:56;;;;;;;8.18;5.53;;;5.20;99.90;;;;;;2022244;70;21114;-75
2021/10/15 00:26:22;;;;;;;6.95;5.33;;;5.20;99.90;;;;;;2019048;70;21178;-75
2021/10/15 00:28:48;;;;;;;8.10;4.55;;;5.20;99.90;;;;;;1993525;70;21834;-75
2021/10/15 00:31:14;;;;;;;9.58;5.50;;;5.20;99.90;;;;;;2003888;70;21479;-74
2021/10/15 00:33:41;;;;;;;8.15;4.85;;;5.20;99.90;;;;;;1993963;70;21143;-74
2021/10/15 00:36:07;;;;;;;6.83;4.97;;;5.10;99.90;;;;;;2002315;70;21147;-76
2021/10/15 00:38:33;;;;;;;12.82;6.30;;;5.10;99.90;;;;;;1990852;70;21039;-75
2021/10/15 00:40:59;;;;;;;7.72;5.60;;;5.10;99.90;;;;;;1994444;70;21118;-74
2021/10/15 00:43:25;;;;;;;7.10;5.25;;;5.00;99.90;;;;;;1981305;70;21059;-75
2021/10/15 00:45:51;;;;;;;8.43;5.87;;;4.90;99.90;;;;;;2004937;70;21124;-73
2021/10/15 00:48:17;;;;;;;12.37;6.15;;;4.90;99.90;;;;;;1984587;70;21135;-75
2021/10/15 00:50:44;;;;;;;11.43;6.22;;;4.90;99.90;;;;;;2011296;70;21458;-75
2021/10/15 00:53:10;;;;;;;8.85;6.42;;;4.80;99.90;;;;;;2013802;70;21424;-75
2021/10/15 00:55:36;;;;;;;8.98;5.78;;;4.80;99.90;;;;;;2002857;70;21468;-74
2021/10/15 00:58:02;;;;;;;8.35;6.00;;;4.80;99.90;;;;;;2007256;70;21440;-75
2021/10/15 01:00:28;;;;;;;8.95;5.70;;;4.80;99.90;;;;;;2000773;70;21131;-74
2021/10/15 01:02:55;;;;;;;13.38;6.25;;;4.90;99.90;;;;;;2021912;70;21051;-74
2021/10/15 01:05:21;;;;;;;11.75;6.03;;;4.80;99.90;;;;;;2021047;70;21074;-75
2021/10/15 01:07:48;;;;;;;7.83;5.60;;;4.80;99.90;;;;;;1990004;70;21485;-75
2021/10/15 01:10:14;;;;;;;9.25;5.92;;;4.80;99.90;;;;;;1990012;70;21387;-75
2021/10/15 01:12:40;;;;;;;11.97;5.83;;;4.70;99.90;;;;;;2020893;70;21125;-75
2021/10/15 01:15:06;;;;;;;8.78;5.85;;;4.70;99.90;;;;;;2006998;70;21024;-74
2021/10/15 01:17:32;;;;;;;7.40;4.72;;;4.80;99.90;;;;;;2023314;70;21055;-75
2021/10/15 01:19:58;;;;;;;9.40;5.45;;;4.70;99.90;;;;;;2001581;70;21119;-75
2021/10/15 01:22:25;;;;;;;7.80;5.45;;;4.70;99.90;;;;;;2019125;70;21161;-75
2021/10/15 01:24:51;;;;;;;10.38;5.12;;;4.60;99.90;;;;;;2014287;70;21171;-75
2021/10/15 01:27:17;;;;;;;11.85;5.83;;;4.60;99.90;;;;;;2019071;70;21124;-75
2021/10/15 01:29:43;;;;;;;8.55;5.40;;;4.60;99.90;;;;;;2001380;70;21119;-75
2021/10/15 01:32:09;;;;;;;7.08;5.53;;;4.60;99.90;;;;;;2022531;70;21132;-75
2021/10/15 01:34:35;;;;;;;7.58;5.42;;;4.60;99.90;;;;;;2013019;70;21023;-75
2021/10/15 01:37:02;;;;;;;13.78;6.40;;;4.60;99.90;;;;;;2012090;70;21047;-75
2021/10/15 01:39:28;;;;;;;7.92;5.67;;;4.60;99.90;;;;;;2023252;70;21051;-75
2021/10/15 01:41:54;;;;;;;11.88;5.58;;;4.60;99.90;;;;;;2004820;70;21133;-75
2021/10/15 01:44:20;;;;;;;7.50;5.90;;;4.50;99.90;;;;;;2022583;70;21055;-75
2021/10/15 01:46:46;;;;;;;8.08;5.28;;;4.40;99.90;;;;;;2023461;70;21128;-75
2021/10/15 01:49:12;;;;;;;6.25;5.65;;;4.50;99.90;;;;;;2010674;70;21020;-74
2021/10/15 01:51:38;;;;;;;7.87;5.10;;;4.50;99.90;;;;;;2006927;70;21056;-75
2021/10/15 01:54:05;;;;;;;7.62;6.05;;;4.40;99.90;;;;;;2001488;70;21547;-75
2021/10/15 01:56:31;;;;;;;7.45;5.42;;;4.40;99.90;;;;;;1991952;70;21104;-75
2021/10/15 01:58:57;;;;;;;11.25;6.45;;;4.40;99.90;;;;;;2003405;70;21148;-75
2021/10/15 02:01:23;;;;;;;7.37;5.75;;;4.40;99.90;;;;;;2007882;70;21042;-74
2021/10/15 02:03:49;;;;;;;9.88;6.42;;;4.40;99.90;;;;;;2009485;70;21054;-75
2021/10/15 02:06:15;;;;;;;7.42;6.03;;;4.30;99.90;;;;;;2021182;70;21160;-75
2021/10/15 02:08:41;;;;;;;7.58;5.53;;;4.30;99.90;;;;;;2002058;70;21132;-74
2021/10/15 02:11:08;;;;;;;7.90;6.00;;;4.30;99.90;;;;;;2009834;70;21015;-75
2021/10/15 02:13:34;;;;;;;15.08;6.53;;;4.30;99.90;;;;;;2014141;70;21067;-73
2021/10/15 02:16:00;;;;;;;9.83;6.50;;;4.30;99.90;;;;;;2006305;70;21453;-74
2021/10/15 02:18:26;;;;;;;16.60;6.37;;;4.30;99.90;;;;;;2011054;70;21555;-75
2021/10/15 02:20:52;;;;;;;11.88;6.15;;;4.30;99.90;;;;;;1991112;70;21054;-75
2021/10/15 02:23:18;;;;;;;7.15;5.65;;;4.30;99.90;;;;;;2021762;70;21172;-75
2021/10/15 02:25:44;;;;;;;7.33;6.12;;;4.20;99.90;;;;;;2021468;70;21104;-75
2021/10/15 02:28:10;;;;;;;9.55;6.70;;;4.20;99.90;;;;;;2016265;70;21027;-75
2021/10/15 02:30:37;;;;;;;7.72;6.00;;;4.20;99.90;;;;;;2004720;70;21039;-75
2021/10/15 02:33:03;;;;;;;8.38;5.87;;;4.20;99.90;;;;;;2003594;70;21108;-75
2021/10/15 02:35:29;;;;;;;7.87;6.10;;;4.20;99.90;;;;;;2006323;70;21043;-75
2021/10/15 02:38:00;;;;;;;9.33;6.50;;;4.30;99.90;;;;;;2022346;70;21533;-75
2021/10/15 02:40:23;;;;;;;9.33;6.60;;;4.20;99.90;;;;;;2011265;70;21231;-74
2021/10/15 02:42:49;;;;;;;9.10;6.58;;;4.20;99.90;;;;;;2010290;70;21059;-76
2021/10/15 02:45:15;;;;;;;10.95;6.72;;;4.10;99.90;;;;;;2019329;70;21168;-75
2021/10/15 02:47:41;;;;;;;11.73;6.83;;;4.10;99.90;;;;;;1994915;70;21465;-75
2021/10/15 02:50:08;;;;;;;11.10;6.90;;;4.10;99.90;;;;;;2012369;70;21439;-75
2021/10/15 02:52:34;;;;;;;15.08;6.83;;;4.10;99.90;;;;;;2008890;70;21454;-74
2021/10/15 02:55:00;;;;;;;7.80;6.20;;;4.10;99.90;;;;;;1992808;70;21050;-74
2021/10/15 02:57:26;;;;;;;6.80;5.70;;;4.10;99.90;;;;;;2023117;70;21055;-74
2021/10/15 02:59:52;;;;;;;10.20;6.80;;;4.10;99.90;;;;;;2023464;70;21062;-74
2021/10/15 03:02:18;;;;;;;8.50;6.22;;;4.00;99.90;;;;;;2021665;70;21089;-75
2021/10/15 03:04:44;;;;;;;9.43;6.30;;;4.00;99.90;;;;;;2002823;70;21032;-75
2021/10/15 03:07:11;;;;;;;8.48;6.53;;;4.00;99.90;;;;;;2010591;70;21046;-75
2021/10/15 03:09:37;;;;;;;8.55;6.40;;;3.90;99.90;;;;;;1995476;70;21430;-75
2021/10/15 03:12:03;;;;;;;9.38;6.10;;;3.90;99.90;;;;;;2001428;70;21501;-75
2021/10/15 03:14:29;;;;;;;9.03;6.72;;;3.90;99.90;;;;;;2018507;70;21455;-74
2021/10/15 03:16:55;;;;;;;7.55;5.97;;;3.80;99.90;;;;;;2001263;70;21121;-74
2021/10/15 03:19:21;;;;;;;10.05;5.97;;;3.80;99.90;;;;;;2003893;70;21121;-75
2021/10/15 03:21:48;;;;;;;10.63;6.40;;;3.80;99.90;;;;;;2023534;70;21068;-74
2021/10/15 03:24:14;;;;;;;8.15;6.25;;;3.80;99.90;;;;;;2004966;70;21113;-75
2021/10/15 03:26:40;;;;;;;10.93;6.67;;;3.80;99.90;;;;;;2002716;70;21061;-75
2021/10/15 03:29:06;;;;;;;11.28;6.75;;;3.80;99.90;;;;;;2010543;70;21140;-75
2021/10/15 03:31:32;;;;;;;8.70;6.15;;;3.80;99.90;;;;;;2017510;70;21067;-75
2021/10/15 03:33:58;;;;;;;7.97;6.30;;;3.80;99.90;;;;;;2004539;70;21511;-75
2021/10/15 03:36:24;;;;;;;7.67;6.53;;;3.80;99.90;;;;;;2025217;70;21454;-75
2021/10/15 03:38:50;;;;;;;13.38;7.17;;;3.80;99.90;;;;;;2002904;70;21459;-75
2021/10/15 03:41:17;;;;;;;10.93;7.28;;;3.80;99.90;;;;;;2014282;70;21116;-74
2021/10/15 03:43:43;;;;;;;9.25;7.30;;;3.80;99.90;;;;;;2018369;70;21195;-74
2021/10/15 03:46:09;;;;;;;9.30;6.55;;;3.80;99.90;;;;;;1990041;70;21140;-75
2021/10/15 03:48:35;;;;;;;7.20;6.50;;;3.70;99.90;;;;;;2018629;70;21055;-73
2021/10/15 03:51:01;;;;;;;10.43;6.45;;;3.70;99.90;;;;;;1993623;70;21039;-75
2021/10/15 03:53:27;;;;;;;10.63;6.45;;;3.60;99.90;;;;;;2022384;70;21125;-74
2021/10/15 03:55:53;;;;;;;9.65;6.72;;;3.60;99.90;;;;;;2000462;70;21042;-75
2021/10/15 03:58:19;;;;;;;9.03;6.72;;;3.60;99.90;;;;;;1995541;70;21046;-75
2021/10/15 04:00:45;;;;;;;9.88;6.80;;;3.70;99.90;;;;;;2005063;70;21183;-75
2021/10/15 04:03:12;;;;;;;8.78;6.60;;;3.60;99.90;;;;;;2005145;70;21860;-73
2021/10/15 04:05:38;;;;;;;7.95;6.37;;;3.60;99.90;;;;;;2016209;70;21106;-75
2021/10/15 04:08:04;;;;;;;13.10;6.67;;;3.50;99.90;;;;;;2015521;70;21099;-75
2021/10/15 04:10:30;;;;;;;10.68;6.90;;;3.50;99.90;;;;;;2022411;70;21458;-75
2021/10/15 04:12:56;;;;;;;11.90;7.53;;;3.50;99.90;;;;;;2019680;70;21464;-75
2021/10/15 04:15:22;;;;;;;13.03;7.50;;;3.50;99.90;;;;;;2024761;70;21182;-75
2021/10/15 04:17:48;;;;;;;16.45;8.13;;;3.40;99.90;;;;;;2004718;70;21022;-73
2021/10/15 04:20:14;;;;;;;10.70;7.28;;;3.40;99.90;;;;;;2018459;70;21055;-75
2021/10/15 04:22:41;;;;;;;9.28;6.45;;;3.40;99.90;;;;;;1995302;70;21062;-74
2021/10/15 04:25:07;;;;;;;12.88;7.92;;;3.50;99.90;;;;;;1990041;70;21078;-74
2021/10/15 04:27:33;;;;;;;8.68;6.50;;;3.50;99.90;;;;;;2013943;70;21168;-75
2021/10/15 04:29:59;;;;;;;9.48;6.42;;;3.50;99.90;;;;;;2025235;70;21059;-74
2021/10/15 04:32:25;;;;;;;10.28;7.42;;;3.50;99.90;;;;;;2005704;70;21050;-75
2021/10/15 04:34:53;;;;;;;11.95;7.22;;;3.50;99.90;;;;;;2014475;70;21024;-75
2021/10/15 04:37:19;;;;;;;10.80;6.97;;;3.50;99.90;;;;;;2003277;70;21075;-75
2021/10/15 04:39:45;;;;;;;10.10;6.62;;;3.50;99.90;;;;;;2001072;70;21148;-74
2021/10/15 04:42:11;;;;;;;11.38;7.87;;;3.40;99.90;;;;;;1998307;70;21050;-74
2021/10/15 04:44:37;;;;;;;9.95;6.92;;;3.50;99.90;;;;;;2003993;70;21132;-74
2021/10/15 04:47:03;;;;;;;7.90;6.83;;;3.40;99.90;;;;;;2006510;70;21071;-74
2021/10/15 04:49:30;;;;;;;10.45;7.58;;;3.40;99.90;;;;;;2006954;70;21508;-75
2021/10/15 04:51:56;;;;;;;8.28;6.92;;;3.30;99.90;;;;;;2019214;70;21512;-75
2021/10/15 04:54:22;;;;;;;21.13;7.70;;;3.30;99.90;;;;;;2000965;70;21457;-73
2021/10/15 04:56:48;;;;;;;9.30;6.80;;;3.30;99.90;;;;;;2011907;70;21043;-74
2021/10/15 04:59:14;;;;;;;8.60;7.17;;;3.30;99.90;;;;;;2017497;70;21055;-74
2021/10/15 05:01:40;;;;;;;10.10;7.12;;;3.30;99.90;;;;;;2006266;70;21046;-74
2021/10/15 05:04:06;;;;;;;11.18;7.37;;;3.30;99.90;;;;;;2010816;70;21168;-73
2021/10/15 05:06:32;;;;;;;14.23;7.05;;;3.30;99.90;;;;;;2015900;70;21093;-74
2021/10/15 05:11:35;;;;;;;12.55;6.40;;;3.30;99.90;;;;;;1995290;70;21114;-74
2021/10/15 05:14:01;;;;;;;9.58;7.12;;;3.30;99.90;;;;;;2021556;70;21120;-74
2021/10/15 05:16:27;;;;;;;10.48;6.78;;;3.30;99.90;;;;;;2008623;70;21050;-74
2021/10/15 05:18:54;;;;;;;11.18;7.05;;;3.30;99.90;;;;;;1989877;70;21061;-75
2021/10/15 05:21:20;;;;;;;10.08;8.10;;;3.30;99.90;;;;;;1997868;70;21091;-74
2021/10/15 05:23:46;;;;;;;10.28;7.55;;;3.20;99.90;;;;;;2012012;70;21622;-74
2021/10/15 05:26:12;;;;;;;12.10;7.20;;;3.30;99.90;;;;;;2012546;70;21564;-74
2021/10/15 05:28:38;;;;;;;12.58;6.87;;;3.30;99.90;;;;;;2021294;70;21581;-80
2021/10/15 05:31:04;;;;;;;12.78;7.17;;;3.30;99.90;;;;;;2006222;70;21547;-80
2021/10/15 05:33:30;;;;;;;13.62;8.28;;;3.30;99.90;;;;;;2006309;70;21071;-79
2021/10/15 05:35:56;;;;;;;9.50;7.72;;;3.30;99.90;;;;;;1992609;70;21108;-74
2021/10/15 05:38:23;;;;;;;14.05;8.53;;;3.30;99.90;;;;;;2020241;70;21131;-79
2021/10/15 05:40:49;;;;;;;10.70;7.50;;;3.40;99.90;;;;;;2001020;70;21554;-78
2021/10/15 05:43:15;;;;;;;11.38;7.95;;;3.40;99.90;;;;;;2004617;70;21164;-76
2021/10/15 05:45:41;;;;;;;24.25;8.68;;;3.40;99.90;;;;;;2015924;70;21131;-79
2021/10/15 05:48:09;;;;;;;11.35;7.65;;;3.40;99.90;;;;;;2016048;70;21093;-77
2021/10/15 05:50:35;;;;;;;13.08;8.33;;;3.40;99.90;;;;;;2020033;70;21202;-77
2021/10/15 05:53:08;;;;;;;15.00;7.62;;;3.40;99.90;;;;;;2024147;70;21544;-75
2021/10/15 05:55:57;;;;;;;10.40;7.47;;;3.50;99.90;;;;;;2003571;70;21156;-76
2021/10/15 06:00:43;;;;;;;18.85;7.47;;;3.60;99.90;;;;;;1955908;70;21031;-77
2021/10/15 06:03:09;;;;;;;10.55;7.95;;;3.60;99.90;;;;;;2009257;70;21119;-75
2021/10/15 06:16:12;;;;;;;9.98;7.30;;;3.90;99.90;;;;;;2006310;70;21160;-76
2021/10/15 06:18:41;;;;;;;14.73;8.53;;;4.00;99.90;;;;;;1994734;70;21075;-75
2021/10/15 06:21:07;;;;;;;10.90;7.75;;;4.00;99.90;;;;;;1997815;70;21101;-78
2021/10/15 06:23:33;;;;;;;15.63;8.30;;;4.10;99.90;;;;;;1989969;70;21115;-77
2021/10/15 06:25:59;;;;;;;12.53;7.25;;;4.10;99.90;;;;;;2004661;70;21042;-78
2021/10/15 06:28:25;;;;;;;10.28;8.03;;;4.20;99.90;;;;;;1992319;70;21062;-78
2021/10/15 06:30:51;;;;;;;14.63;7.70;;;4.20;99.90;;;;;;2012534;70;21048;-78
2021/10/15 06:33:17;;;;;;;10.90;7.55;;;4.10;99.90;;;;;;2005417;70;21035;-78
2021/10/15 06:35:43;;;;;;;12.23;7.90;;;4.20;99.90;;;;;;2001613;70;21171;-78
2021/10/15 06:38:11;;;;;;;13.15;7.50;;;4.20;99.90;;;;;;2020162;70;21195;-78
2021/10/15 06:40:37;;;;;;;9.25;6.75;;;4.20;99.90;;;;;;2004742;70;21131;-78
2021/10/15 06:43:05;;;;;;;11.53;7.95;;;4.10;99.90;;;;;;2011074;70;21058;-78
2021/10/15 06:45:31;;;;;;;13.48;7.92;;;4.10;99.90;;;;;;2017601;70;21222;-78
2021/10/15 06:47:57;;;;;;;12.30;8.33;;;4.20;99.90;;;;;;2006612;70;21135;-79
2021/10/15 06:50:23;;;;;;;10.82;8.25;;;4.20;99.90;;;;;;2015275;70;21058;-78
2021/10/15 06:52:49;;;;;;;11.80;7.55;;;4.30;99.90;;;;;;2020456;70;21020;-78
2021/10/15 06:55:15;;;;;;;14.93;7.95;;;4.40;99.90;;;;;;2014017;70;21140;-78
2021/10/15 06:57:42;;;;;;;15.03;7.53;;;4.50;99.90;;;;;;2000670;70;21178;-78
2021/10/15 07:00:08;;;;;;;16.35;6.95;;;4.60;99.90;;;;;;1999269;70;21129;-78
2021/10/15 07:02:34;;;;;;;13.48;7.17;;;4.70;99.90;;;;;;2015242;70;21127;-78
2021/10/15 07:05:00;;;;;;;14.05;6.25;;;4.60;99.90;;;;;;2010361;70;21059;-78
2021/10/15 07:07:26;;;;;;;9.25;6.45;;;4.60;99.90;;;;;;1995925;70;21053;-78
2021/10/15 07:09:52;;;;;;;15.08;6.17;;;4.60;99.90;;;;;;2010390;70;21145;-78
2021/10/15 07:12:18;;;;;;;8.63;5.83;;;4.70;99.90;;;;;;2016769;70;21552;-78
2021/10/15 07:14:45;;;;;;;15.13;6.60;;;4.80;99.90;;;;;;1999788;70;21442;-78
2021/10/15 07:17:11;;;;;;;11.00;7.12;;;4.80;99.90;;;;;;2019428;70;21032;-79
2021/10/15 07:19:37;;;;;;;11.03;6.67;;;4.80;99.90;;;;;;2019297;70;21108;-79
2021/10/15 07:22:03;;;;;;;12.33;6.92;;;5.00;99.90;;;;;;2000449;70;21046;-78
2021/10/15 07:24:29;;;;;;;20.17;7.90;;;5.00;99.90;;;;;;2007660;70;21136;-78
2021/10/15 07:26:55;;;;;;;14.43;7.40;;;5.00;99.90;;;;;;2024623;70;21055;-78
2021/10/15 07:29:21;;;;;;;12.98;7.95;;;5.10;99.90;;;;;;1999925;70;21066;-79
2021/10/15 07:31:47;;;;;;;16.02;7.22;;;5.20;99.90;;;;;;1995960;70;21050;-79
2021/10/15 07:34:14;;;;;;;14.35;7.55;;;5.20;99.90;;;;;;1999616;70;21124;-76
2021/10/15 07:36:40;;;;;;;18.40;7.05;;;5.30;99.90;;;;;;1995729;70;21050;-77
2021/10/15 07:39:06;;;;;;;15.68;8.03;;;5.40;99.90;;;;;;2001004;70;21071;-76
2021/10/15 07:41:32;;;;;;;10.45;6.70;;;5.60;99.90;;;;;;1998727;70;21123;-74
2021/10/15 07:43:58;;;;;;;8.05;6.50;;;5.70;99.90;;;;;;2003781;70;21024;-76
2021/10/15 07:46:24;;;;;;;21.17;7.10;;;5.90;99.90;;;;;;2010143;70;21046;-75
2021/10/15 07:48:50;;;;;;;12.63;6.67;;;6.00;99.90;;;;;;2006560;70;21148;-75
2021/10/15 07:51:16;;;;;;;16.77;6.37;;;6.10;99.90;;;;;;2016107;70;21167;-76
2021/10/15 07:53:43;;;;;;;13.72;5.83;;;6.10;99.90;;;;;;2012109;70;21042;-76
2021/10/15 07:56:09;;;;;;;12.43;6.20;;;6.10;99.90;;;;;;2023204;70;21027;-76
2021/10/15 07:58:35;;;;;;;11.85;5.50;;;6.20;99.90;;;;;;2014004;70;21046;-76
2021/10/15 08:01:01;;;;;;;8.30;5.95;;;6.20;99.90;;;;;;1999502;70;21131;-75
2021/10/15 08:03:27;;;;;;;7.42;5.20;;;6.40;99.90;;;;;;1990213;70;21460;-75
2021/10/15 08:05:53;;;;;;;9.40;6.25;;;6.60;99.90;;;;;;2005816;70;21210;-75
2021/10/15 08:08:19;;;;;;;8.88;5.78;;;6.70;99.90;;;;;;2022466;70;22525;-75
2021/10/15 08:10:46;;;;;;;8.80;5.60;;;7.00;99.90;;;;;;2011903;70;21250;-75
2021/10/15 08:13:13;;;;;;;7.03;5.10;;;7.20;99.90;;;;;;2018173;70;21019;-76
2021/10/15 08:15:39;;;;;;;8.45;5.17;;;7.40;99.90;;;;;;1995483;70;21458;-76
2021/10/15 08:18:05;;;;;;;7.85;5.10;;;7.50;99.90;;;;;;2006377;70;21608;-76
2021/10/15 08:20:31;;;;;;;8.88;5.20;;;7.80;99.90;;;;;;2014196;70;21533;-76
2021/10/15 08:22:57;;;;;;;9.78;5.67;;;8.10;99.90;;;;;;2018282;70;21144;-76
2021/10/15 08:25:23;;;;;;;6.92;5.50;;;8.10;99.90;;;;;;2013730;70;21055;-76
2021/10/15 08:27:50;;;;;;;8.55;5.10;;;8.00;99.90;;;;;;2022823;70;21051;-77
2021/10/15 08:30:16;;;;;;;7.62;4.95;;;8.30;99.90;;;;;;2012051;70;21031;-77
2021/10/15 08:32:42;;;;;;;6.58;5.00;;;8.40;99.90;;;;;;2020556;70;21186;-77
2021/10/15 08:35:10;;;;;;;7.12;5.05;;;8.50;99.90;;;;;;2006607;70;21108;-76
2021/10/15 08:37:36;;;;;;;9.13;5.20;;;8.40;99.90;;;;;;2004706;70;21127;-75
2021/10/15 08:40:02;;;;;;;26.50;5.50;;;8.40;99.90;;;;;;2008965;70;21132;-77
2021/10/15 08:42:28;;;;;;;13.88;9.38;;;8.70;99.90;;;;;;2003741;70;21131;-76
2021/10/15 08:44:54;;;;;;;6.97;4.92;;;9.20;99.90;;;;;;1989972;70;21078;-77
2021/10/15 08:47:21;;;;;;;8.23;4.90;;;9.30;99.90;;;;;;2012021;70;21110;-75
2021/10/15 08:49:47;;;;;;;8.90;5.33;;;9.30;99.90;;;;;;2005059;70;21553;-79
2021/10/15 08:52:13;;;;;;;11.30;5.33;;;9.40;99.90;;;;;;1998512;70;21105;-75
2021/10/15 08:54:43;;;;;;;10.15;5.17;;;9.50;99.90;;;;;;2016701;70;21438;-76
2021/10/15 08:57:07;;;;;;;15.30;4.95;;;9.30;99.90;;;;;;2014230;70;21210;-79
2021/10/15 08:59:33;;;;;;;15.63;5.50;;;9.30;99.90;;;;;;2011592;70;21142;-77
2021/10/15 09:01:59;;;;;;;10.68;5.05;;;9.20;99.90;;;;;;1990025;70;21097;-76
2021/10/15 09:04:25;;;;;;;5.33;4.83;;;9.40;99.90;;;;;;2008660;70;21062;-76
2021/10/15 09:06:51;;;;;;;6.55;5.45;;;9.60;99.90;;;;;;2017789;70;21054;-79
2021/10/15 09:09:17;;;;;;;8.73;5.28;;;9.90;99.90;;;;;;2005892;70;21627;-80
2021/10/15 09:11:46;;;;;;;7.47;5.20;;;10.20;99.90;;;;;;1990461;70;21411;-80
2021/10/15 09:14:12;;;;;;;8.55;5.17;;;10.70;99.90;;;;;;2006438;70;21054;-80
2021/10/15 09:16:39;;;;;;;8.28;5.30;;;11.10;99.90;;;;;;2020881;70;21054;-77
2021/10/15 09:19:05;;;;;;;9.90;4.97;;;11.50;99.90;;;;;;2010867;70;21050;-78
2021/10/15 09:21:31;;;;;;;11.35;5.30;;;11.70;99.90;;;;;;1984962;70;21123;-79
2021/10/15 09:24:01;;;;;;;7.55;4.75;;;11.50;99.90;;;;;;2013195;70;21543;-82
2021/10/15 09:26:25;;;;;;;8.23;5.15;;;11.70;99.90;;;;;;2026263;70;21160;-77
2021/10/15 09:28:51;;;;;;;10.03;5.62;;;12.00;99.90;;;;;;2004759;70;21524;-77
2021/10/15 09:31:18;;;;;;;9.73;5.40;;;12.00;99.90;;;;;;1987064;70;21175;-81
2021/10/15 09:33:45;;;;;;;8.03;6.03;;;12.10;99.90;;;;;;1992681;70;21050;-77
2021/10/15 09:36:11;;;;;;;8.83;5.20;;;12.10;99.90;;;;;;2011300;70;21135;-77
2021/10/15 09:38:37;;;;;;;10.38;4.92;;;12.10;99.90;;;;;;1990628;70;21042;-77
2021/10/15 09:41:03;;;;;;;9.93;5.08;;;12.40;99.90;;;;;;2007189;70;21100;-76
2021/10/15 09:43:29;;;;;;;8.25;5.33;;;12.50;99.90;;;;;;1993035;70;21120;-77
2021/10/15 09:45:55;;;;;;;11.00;5.60;;;12.60;99.90;;;;;;1997948;70;21669;-77
2021/10/15 09:48:21;;;;;;;9.58;5.37;;;12.50;99.90;;;;;;2003394;70;21455;-76
2021/10/15 09:50:48;;;;;;;13.43;5.50;;;12.70;99.90;;;;;;1999402;70;21120;-76
2021/10/15 09:53:14;;;;;;;7.28;5.37;;;12.90;99.90;;;;;;2002732;70;21277;-77
2021/10/15 09:55:40;;;;;;;8.28;5.37;;;13.10;99.90;;;;;;1994918;70;21184;-74
2021/10/15 09:58:06;;;;;;;5.70;4.78;;;13.60;99.90;;;;;;2008940;70;21020;-76
2021/10/15 10:00:34;;;;;;;7.28;5.12;;;13.60;99.90;;;;;;2000595;70;21112;-76
2021/10/15 10:03:00;;;;;;;11.10;5.03;;;14.00;99.90;;;;;;2002922;70;21153;-78
2021/10/15 10:05:26;;;;;;;8.28;5.75;;;14.40;99.90;;;;;;2024411;70;21058;-75
2021/10/15 10:07:52;;;;;;;7.35;4.95;;;14.70;99.90;;;;;;2009615;70;21028;-75
2021/10/15 10:10:18;;;;;;;9.10;5.37;;;14.60;99.90;;;;;;2004306;70;21054;-74
2021/10/15 10:12:44;;;;;;;12.33;5.40;;;15.00;99.90;;;;;;1999989;70;21049;-73
2021/10/15 10:15:11;;;;;;;9.85;4.50;;;15.10;99.90;;;;;;2006616;70;21063;-74
2021/10/15 10:17:38;;;;;;;7.53;4.70;;;15.40;99.90;;;;;;1994821;70;21120;-74
2021/10/15 10:20:04;;;;;;;10.15;4.62;;;15.40;99.90;;;;;;2005512;70;21027;-74
2021/10/15 10:22:31;;;;;;;6.53;4.10;;;15.90;99.90;;;;;;2001027;70;21374;-75
2021/10/15 10:24:57;;;;;;;8.35;4.62;;;16.30;99.90;;;;;;1993868;71;21050;-73
2021/10/15 10:27:23;;;;;;;5.60;4.28;;;16.10;99.90;;;;;;2003099;70;21055;-72
2021/10/15 10:29:54;;;;;;;8.40;4.37;;;16.30;99.90;;;;;;2001214;70;21112;-73
2021/10/15 10:32:17;;;;;;;11.22;4.20;;;16.70;99.90;;;;;;1999785;70;21075;-73
2021/10/15 10:34:43;;;;;;;5.58;3.77;;;16.80;99.90;;;;;;2022790;70;21104;-72
2021/10/15 10:37:09;;;;;;;5.90;3.80;;;16.30;99.90;;;;;;2019981;70;21027;-74
2021/10/15 10:42:20;;;;;;;7.70;5.05;;;16.30;99.90;;;;;;2004859;70;21042;-74
2021/10/15 10:44:46;;;;;;;7.53;3.40;;;16.30;99.90;;;;;;2011092;70;21181;-74
2021/10/15 10:47:14;;;;;;;19.35;4.12;;;17.20;99.90;;;;;;1997934;70;21046;-73
2021/10/15 10:49:40;;;;;;;3.70;2.98;;;17.50;99.90;;;;;;1995480;70;21061;-74
2021/10/15 10:52:07;;;;;;;4.65;2.95;;;18.00;99.90;;;;;;1989396;70;21123;-80
2021/10/15 10:54:33;;;;;;;5.90;2.72;;;17.80;99.90;;;;;;2001164;70;21132;-81
2021/10/15 10:56:59;;;;;;;5.60;2.87;;;18.10;99.90;;;;;;2006135;70;21011;-81
2021/10/15 10:59:25;;;;;;;4.40;2.98;;;18.00;99.90;;;;;;2009567;70;21181;-79
2021/10/15 11:01:52;;;;;;;5.70;3.08;;;18.10;99.90;;;;;;2013957;70;21140;-78
2021/10/15 11:04:18;;;;;;;2.67;2.47;;;17.70;99.90;;;;;;2005032;70;21071;-78
2021/10/15 11:06:44;;;;;;;3.75;2.70;;;17.60;99.90;;;;;;2007316;70;21804;-79
2021/10/15 11:09:11;;;;;;;6.40;2.77;;;17.20;99.90;;;;;;1997372;70;21766;-78
2021/10/15 11:11:37;;;;;;;4.35;2.80;;;16.70;99.90;;;;;;2007882;70;21505;-79
2021/10/15 11:14:03;;;;;;;4.70;2.85;;;16.70;99.90;;;;;;2021916;70;21427;-81
2021/10/15 11:16:30;;;;;;;7.58;2.90;;;17.40;99.90;;;;;;2000258;70;21450;-81
2021/10/15 11:18:56;;;;;;;4.08;2.83;;;17.80;99.90;;;;;;2006364;70;21128;-81
2021/10/15 11:21:22;;;;;;;4.65;3.08;;;17.90;99.90;;;;;;1995168;70;21046;-81
2021/10/15 11:23:48;;;;;;;7.25;3.90;;;17.90;99.90;;;;;;2010944;70;21027;-81
2021/10/15 11:26:15;;;;;;;4.37;2.65;;;18.50;99.90;;;;;;2007957;70;21454;-80
2021/10/15 11:28:41;;;;;;;2.65;2.45;;;19.50;99.90;;;;;;2004102;70;21489;-80
2021/10/15 11:31:07;;;;;;;5.08;2.72;;;19.80;99.90;;;;;;1999134;70;21543;-79
2021/10/15 11:33:36;;;;;;;4.70;2.65;;;20.10;99.90;;;;;;2009104;70;21510;-81
2021/10/15 11:36:01;;;;;;;4.80;2.75;;;19.90;99.90;;;;;;2000067;70;21067;-80
2021/10/15 11:38:27;;;;;;;22.10;2.55;;;18.90;99.90;;;;;;1999669;70;21074;-81
2021/10/15 11:40:53;;;;;;;4.33;2.30;;;19.00;99.90;;;;;;1993579;70;21056;-81
2021/10/15 11:43:25;;;;;;;3.62;2.92;;;19.30;99.90;;;;;;2005207;70;21100;-80
2021/10/15 11:45:51;;;;;;;7.90;3.05;;;18.80;99.90;;;;;;1997687;70;21451;-81
2021/10/15 11:48:17;;;;;;;5.95;2.67;;;18.80;99.90;;;;;;1996550;70;21048;-80
2021/10/15 11:50:43;;;;;;;3.02;2.33;;;19.00;99.90;;;;;;1998723;70;21046;-80
2021/10/15 11:53:10;;;;;;;4.42;2.67;;;19.20;99.90;;;;;;2013924;70;21532;-81
2021/10/15 11:55:36;;;;;;;6.17;2.60;;;19.60;99.90;;;;;;1998644;70;21462;-80
2021/10/15 11:58:02;;;;;;;2.90;2.22;;;20.30;99.90;;;;;;2006007;70;21227;-81
2021/10/15 12:00:28;;;;;;;4.90;2.55;;;20.60;99.90;;;;;;1996456;70;21052;-80
2021/10/15 12:02:54;;;;;;;2.70;2.50;;;20.10;99.90;;;;;;1993202;70;21141;-80
2021/10/15 12:05:20;;;;;;;4.90;2.42;;;19.90;99.90;;;;;;2008184;70;21042;-81
2021/10/15 12:07:46;;;;;;;4.22;2.52;;;19.80;99.90;;;;;;2004180;70;21055;-81
2021/10/15 12:10:12;;;;;;;3.00;2.35;;;19.10;99.90;;;;;;2014081;70;21050;-81
2021/10/15 12:12:39;;;;;;;4.33;2.50;;;19.50;99.90;;;;;;2014377;70;21104;-81
2021/10/15 12:15:05;;;;;;;3.27;2.33;;;19.00;99.90;;;;;;2007756;70;21050;-79
2021/10/15 12:17:31;;;;;;;11.40;2.75;;;18.70;99.90;;;;;;1984174;70;21020;-76
2021/10/15 12:19:58;;;;;;;5.05;2.95;;;18.40;99.90;;;;;;1989761;70;21046;-78
2021/10/15 12:22:24;;;;;;;4.42;2.60;;;18.40;99.90;;;;;;2004333;70;21063;-79
2021/10/15 12:24:51;;;;;;;3.33;2.60;;;18.40;99.90;;;;;;2005906;70;21046;-79
2021/10/15 12:27:17;;;;;;;3.92;2.25;;;19.10;99.90;;;;;;2003964;70;21180;-79
2021/10/15 12:29:43;;;;;;;5.05;2.77;;;19.40;99.90;;;;;;2002776;70;21519;-78
2021/10/15 12:32:09;;;;;;;4.25;2.40;;;19.60;99.90;;;;;;1990142;70;21027;-77
2021/10/15 12:34:35;;;;;;;3.90;2.00;;;19.80;99.90;;;;;;1996481;70;21051;-77
2021/10/15 12:37:01;;;;;;;5.33;2.45;;;19.40;99.90;;;;;;2028377;70;21050;-79
2021/10/15 12:39:27;;;;;;;3.80;2.22;;;19.90;99.90;;;;;;1997222;70;21051;-77
2021/10/15 12:41:53;;;;;;;7.97;2.00;;;20.80;99.90;;;;;;1990099;70;21019;-77
2021/10/15 12:44:20;;;;;;;4.12;2.15;;;20.90;99.90;;;;;;1996403;71;21046;-76
2021/10/15 12:46:46;;;;;;;8.28;2.10;;;20.90;99.90;;;;;;1986594;70;21054;-77
2021/10/15 12:49:12;;;;;;;7.12;2.47;;;20.30;99.90;;;;;;1986931;70;21045;-78
2021/10/15 12:51:41;;;;;;;5.40;2.67;;;19.90;99.90;;;;;;2002124;69;21019;-76
2021/10/15 12:54:06;;;;;;;3.15;2.10;;;19.80;99.90;;;;;;2018122;70;21306;-76
2021/10/15 12:56:32;;;;;;;5.97;2.50;;;19.80;99.90;;;;;;1987616;70;21051;-75
2021/10/15 12:58:58;;;;;;;3.98;2.52;;;19.80;99.90;;;;;;1989657;70;21137;-75
2021/10/15 13:01:24;;;;;;;7.12;2.25;;;19.50;99.90;;;;;;1989398;70;21012;-75
2021/10/15 13:03:51;;;;;;;3.45;1.80;;;19.10;99.90;;;;;;1989048;70;21171;-79